sensor_id;sensor_type;location;lat;lon;timestamp;P1;durP1;ratioP1;P2;durP2;ratioP2
12088;SDS011;6107;49.078;8.578;2022-11-11T00:01:55;7.40;;;4.20;;
12088;SDS011;6107;49.078;8.578;2022-11-11T00:04:21;6.90;;;4.50;;
12088;SDS011;6107;49.078;8.578;2022-11-11T00:06:46;7.07;;;4.20;;
12088;SDS011;6107;49.078;8.578;2022-11-11T00:09:12;9.50;;;5.03;;
12088;SDS011;6107;49.078;8.578;2022-11-11T00:11:37;6.37;;;4.50;;
12088;SDS011;6107;49.078;8.578;2022-11-11T00:14:03;12.73;;;7.33;;
12088;SDS011;6107;49.078;8.578;2022-11-11T00:16:28;9.43;;;5.87;;
12088;SDS011;6107;49.078;8.578;2022-11-11T00:19:14;7.53;;;5.10;;
12088;SDS011;6107;49.078;8.578;2022-11-11T00:21:58;8.83;;;5.33;;
12088;SDS011;6107;49.078;8.578;2022-11-11T00:24:42;9.40;;;5.77;;
12088;SDS011;6107;49.078;8.578;2022-11-11T00:27:26;7.27;;;4.80;;
12088;SDS011;6107;49.078;8.578;2022-11-11T00:29:51;7.53;;;5.07;;
12088;SDS011;6107;49.078;8.578;2022-11-11T00:32:17;11.57;;;5.80;;
12088;SDS011;6107;49.078;8.578;2022-11-11T00:34:50;8.17;;;5.10;;
12088;SDS011;6107;49.078;8.578;2022-11-11T00:37:36;7.87;;;5.50;;
12088;SDS011;6107;49.078;8.578;2022-11-11T00:40:02;8.73;;;5.00;;
12088;SDS011;6107;49.078;8.578;2022-11-11T00:42:28;7.37;;;5.23;;
12088;SDS011;6107;49.078;8.578;2022-11-11T00:44:54;6.07;;;4.47;;
12088;SDS011;6107;49.078;8.578;2022-11-11T00:47:20;7.70;;;5.03;;
12088;SDS011;6107;49.078;8.578;2022-11-11T00:50:05;8.87;;;5.10;;
12088;SDS011;6107;49.078;8.578;2022-11-11T00:52:52;6.53;;;4.90;;
12088;SDS011;6107;49.078;8.578;2022-11-11T00:55:17;6.47;;;4.67;;
12088;SDS011;6107;49.078;8.578;2022-11-11T00:57:43;8.20;;;5.30;;
12088;SDS011;6107;49.078;8.578;2022-11-11T01:00:08;6.90;;;5.20;;
12088;SDS011;6107;49.078;8.578;2022-11-11T01:02:34;7.27;;;4.90;;
12088;SDS011;6107;49.078;8.578;2022-11-11T01:05:00;7.37;;;4.50;;
12088;SDS011;6107;49.078;8.578;2022-11-11T01:07:25;6.37;;;4.20;;
12088;SDS011;6107;49.078;8.578;2022-11-11T01:09:51;7.50;;;4.50;;
12088;SDS011;6107;49.078;8.578;2022-11-11T01:12:16;9.30;;;5.13;;
12088;SDS011;6107;49.078;8.578;2022-11-11T01:14:42;7.50;;;5.00;;
12088;SDS011;6107;49.078;8.578;2022-11-11T01:17:07;8.13;;;4.90;;
12088;SDS011;6107;49.078;8.578;2022-11-11T01:19:33;8.07;;;4.50;;
12088;SDS011;6107;49.078;8.578;2022-11-11T01:21:59;8.03;;;4.40;;
12088;SDS011;6107;49.078;8.578;2022-11-11T01:24:25;6.57;;;4.67;;
12088;SDS011;6107;49.078;8.578;2022-11-11T01:26:51;7.13;;;4.90;;
12088;SDS011;6107;49.078;8.578;2022-11-11T01:29:16;7.13;;;4.20;;
12088;SDS011;6107;49.078;8.578;2022-11-11T01:31:42;7.63;;;4.67;;
12088;SDS011;6107;49.078;8.578;2022-11-11T01:34:08;7.53;;;4.80;;
12088;SDS011;6107;49.078;8.578;2022-11-11T01:36:34;7.43;;;4.20;;
12088;SDS011;6107;49.078;8.578;2022-11-11T01:38:59;6.83;;;4.10;;
12088;SDS011;6107;49.078;8.578;2022-11-11T01:41:29;6.77;;;5.00;;
12088;SDS011;6107;49.078;8.578;2022-11-11T01:46:38;5.03;;;4.50;;
12088;SDS011;6107;49.078;8.578;2022-11-11T01:54:32;4.90;;;4.23;;
12088;SDS011;6107;49.078;8.578;2022-11-11T01:57:04;7.27;;;5.23;;
12088;SDS011;6107;49.078;8.578;2022-11-11T01:59:39;7.17;;;4.50;;
12088;SDS011;6107;49.078;8.578;2022-11-11T02:02:10;6.97;;;4.47;;
12088;SDS011;6107;49.078;8.578;2022-11-11T02:04:45;6.30;;;4.30;;
12088;SDS011;6107;49.078;8.578;2022-11-11T02:07:30;6.60;;;4.27;;
12088;SDS011;6107;49.078;8.578;2022-11-11T02:09:57;6.77;;;4.33;;
12088;SDS011;6107;49.078;8.578;2022-11-11T02:12:23;5.70;;;4.23;;
12088;SDS011;6107;49.078;8.578;2022-11-11T02:15:07;7.10;;;4.23;;
12088;SDS011;6107;49.078;8.578;2022-11-11T02:17:33;6.13;;;4.07;;
12088;SDS011;6107;49.078;8.578;2022-11-11T02:20:00;9.03;;;4.40;;
12088;SDS011;6107;49.078;8.578;2022-11-11T02:22:32;5.97;;;4.00;;
12088;SDS011;6107;49.078;8.578;2022-11-11T02:25:18;6.47;;;4.20;;
12088;SDS011;6107;49.078;8.578;2022-11-11T02:27:47;6.83;;;3.73;;
12088;SDS011;6107;49.078;8.578;2022-11-11T02:30:15;6.10;;;4.00;;
12088;SDS011;6107;49.078;8.578;2022-11-11T02:32:43;5.13;;;3.90;;
12088;SDS011;6107;49.078;8.578;2022-11-11T02:35:18;5.27;;;3.93;;
12088;SDS011;6107;49.078;8.578;2022-11-11T02:37:46;7.93;;;4.40;;
12088;SDS011;6107;49.078;8.578;2022-11-11T02:42:58;5.80;;;3.93;;
12088;SDS011;6107;49.078;8.578;2022-11-11T02:45:23;6.00;;;3.60;;
12088;SDS011;6107;49.078;8.578;2022-11-11T02:47:49;8.57;;;4.43;;
12088;SDS011;6107;49.078;8.578;2022-11-11T02:50:15;5.43;;;3.60;;
12088;SDS011;6107;49.078;8.578;2022-11-11T02:52:40;5.80;;;4.00;;
12088;SDS011;6107;49.078;8.578;2022-11-11T02:55:06;4.80;;;3.70;;
12088;SDS011;6107;49.078;8.578;2022-11-11T02:57:32;6.83;;;4.57;;
12088;SDS011;6107;49.078;8.578;2022-11-11T02:59:59;6.33;;;4.10;;
12088;SDS011;6107;49.078;8.578;2022-11-11T03:02:25;5.93;;;4.27;;
12088;SDS011;6107;49.078;8.578;2022-11-11T03:04:52;6.97;;;4.30;;
12088;SDS011;6107;49.078;8.578;2022-11-11T03:07:18;5.47;;;4.33;;
12088;SDS011;6107;49.078;8.578;2022-11-11T03:09:44;6.30;;;4.20;;
12088;SDS011;6107;49.078;8.578;2022-11-11T03:12:09;6.67;;;3.77;;
12088;SDS011;6107;49.078;8.578;2022-11-11T03:14:35;6.00;;;3.97;;
12088;SDS011;6107;49.078;8.578;2022-11-11T03:17:00;4.50;;;3.90;;
12088;SDS011;6107;49.078;8.578;2022-11-11T03:19:44;6.07;;;3.70;;
12088;SDS011;6107;49.078;8.578;2022-11-11T03:22:10;5.87;;;4.30;;
12088;SDS011;6107;49.078;8.578;2022-11-11T03:24:36;4.77;;;3.90;;
12088;SDS011;6107;49.078;8.578;2022-11-11T03:27:19;4.93;;;3.70;;
12088;SDS011;6107;49.078;8.578;2022-11-11T03:29:45;4.33;;;3.77;;
12088;SDS011;6107;49.078;8.578;2022-11-11T03:32:10;7.53;;;4.00;;
12088;SDS011;6107;49.078;8.578;2022-11-11T03:34:36;6.27;;;4.27;;
12088;SDS011;6107;49.078;8.578;2022-11-11T03:37:02;7.53;;;3.90;;
12088;SDS011;6107;49.078;8.578;2022-11-11T03:39:48;5.23;;;3.63;;
12088;SDS011;6107;49.078;8.578;2022-11-11T03:42:14;4.77;;;3.87;;
12088;SDS011;6107;49.078;8.578;2022-11-11T03:44:39;5.70;;;4.03;;
12088;SDS011;6107;49.078;8.578;2022-11-11T03:47:05;7.47;;;4.30;;
12088;SDS011;6107;49.078;8.578;2022-11-11T03:49:30;5.63;;;3.60;;
12088;SDS011;6107;49.078;8.578;2022-11-11T03:51:56;6.17;;;3.90;;
12088;SDS011;6107;49.078;8.578;2022-11-11T03:54:21;6.20;;;3.90;;
12088;SDS011;6107;49.078;8.578;2022-11-11T03:56:47;5.60;;;3.87;;
12088;SDS011;6107;49.078;8.578;2022-11-11T03:59:12;5.67;;;3.80;;
12088;SDS011;6107;49.078;8.578;2022-11-11T04:01:38;6.53;;;3.90;;
12088;SDS011;6107;49.078;8.578;2022-11-11T04:04:22;5.83;;;4.10;;
12088;SDS011;6107;49.078;8.578;2022-11-11T04:07:07;5.13;;;3.70;;
12088;SDS011;6107;49.078;8.578;2022-11-11T04:09:53;5.33;;;3.73;;
12088;SDS011;6107;49.078;8.578;2022-11-11T04:12:37;5.97;;;4.10;;
12088;SDS011;6107;49.078;8.578;2022-11-11T04:15:23;5.70;;;3.83;;
12088;SDS011;6107;49.078;8.578;2022-11-11T04:18:15;5.50;;;3.63;;
12088;SDS011;6107;49.078;8.578;2022-11-11T04:20:41;6.40;;;4.03;;
12088;SDS011;6107;49.078;8.578;2022-11-11T04:23:26;7.00;;;4.20;;
12088;SDS011;6107;49.078;8.578;2022-11-11T04:25:51;6.10;;;4.30;;
12088;SDS011;6107;49.078;8.578;2022-11-11T04:28:19;5.93;;;3.80;;
12088;SDS011;6107;49.078;8.578;2022-11-11T04:31:03;6.23;;;4.10;;
12088;SDS011;6107;49.078;8.578;2022-11-11T04:33:29;5.33;;;3.90;;
12088;SDS011;6107;49.078;8.578;2022-11-11T04:35:54;8.13;;;4.33;;
12088;SDS011;6107;49.078;8.578;2022-11-11T04:38:20;6.53;;;4.37;;
12088;SDS011;6107;49.078;8.578;2022-11-11T04:41:04;9.30;;;4.07;;
12088;SDS011;6107;49.078;8.578;2022-11-11T04:43:30;5.40;;;3.97;;
12088;SDS011;6107;49.078;8.578;2022-11-11T04:45:59;6.20;;;4.30;;
12088;SDS011;6107;49.078;8.578;2022-11-11T04:48:25;6.93;;;4.23;;
12088;SDS011;6107;49.078;8.578;2022-11-11T04:50:51;6.37;;;4.10;;
12088;SDS011;6107;49.078;8.578;2022-11-11T04:53:17;4.03;;;3.53;;
12088;SDS011;6107;49.078;8.578;2022-11-11T04:55:43;10.00;;;4.33;;
12088;SDS011;6107;49.078;8.578;2022-11-11T04:58:32;7.30;;;4.77;;
12088;SDS011;6107;49.078;8.578;2022-11-11T05:00:59;7.00;;;4.90;;
12088;SDS011;6107;49.078;8.578;2022-11-11T05:03:25;6.13;;;4.53;;
12088;SDS011;6107;49.078;8.578;2022-11-11T05:05:51;8.30;;;5.00;;
12088;SDS011;6107;49.078;8.578;2022-11-11T05:08:38;9.60;;;6.40;;
12088;SDS011;6107;49.078;8.578;2022-11-11T05:11:21;7.70;;;5.20;;
12088;SDS011;6107;49.078;8.578;2022-11-11T05:13:49;6.40;;;4.50;;
12088;SDS011;6107;49.078;8.578;2022-11-11T05:16:38;9.80;;;5.33;;
12088;SDS011;6107;49.078;8.578;2022-11-11T05:19:25;14.57;;;7.10;;
12088;SDS011;6107;49.078;8.578;2022-11-11T05:22:15;12.53;;;6.03;;
12088;SDS011;6107;49.078;8.578;2022-11-11T05:24:56;16.23;;;6.77;;
12088;SDS011;6107;49.078;8.578;2022-11-11T05:27:40;13.47;;;6.07;;
12088;SDS011;6107;49.078;8.578;2022-11-11T05:30:06;18.43;;;6.60;;
12088;SDS011;6107;49.078;8.578;2022-11-11T05:32:33;16.57;;;6.40;;
12088;SDS011;6107;49.078;8.578;2022-11-11T05:34:59;17.33;;;7.27;;
12088;SDS011;6107;49.078;8.578;2022-11-11T05:37:25;24.00;;;9.00;;
12088;SDS011;6107;49.078;8.578;2022-11-11T05:39:50;37.83;;;12.47;;
12088;SDS011;6107;49.078;8.578;2022-11-11T05:42:16;32.80;;;14.40;;
12088;SDS011;6107;49.078;8.578;2022-11-11T05:44:42;36.77;;;15.00;;
12088;SDS011;6107;49.078;8.578;2022-11-11T05:47:08;42.50;;;17.33;;
12088;SDS011;6107;49.078;8.578;2022-11-11T05:49:33;37.47;;;16.23;;
12088;SDS011;6107;49.078;8.578;2022-11-11T05:51:59;34.10;;;13.53;;
12088;SDS011;6107;49.078;8.578;2022-11-11T05:54:25;35.13;;;13.23;;
12088;SDS011;6107;49.078;8.578;2022-11-11T05:56:51;30.77;;;13.47;;
12088;SDS011;6107;49.078;8.578;2022-11-11T05:59:16;27.83;;;14.53;;
12088;SDS011;6107;49.078;8.578;2022-11-11T06:01:42;20.40;;;9.47;;
12088;SDS011;6107;49.078;8.578;2022-11-11T06:04:08;27.57;;;10.83;;
12088;SDS011;6107;49.078;8.578;2022-11-11T06:06:34;39.70;;;10.40;;
12088;SDS011;6107;49.078;8.578;2022-11-11T06:09:00;28.00;;;10.47;;
12088;SDS011;6107;49.078;8.578;2022-11-11T06:11:26;24.50;;;10.23;;
12088;SDS011;6107;49.078;8.578;2022-11-11T06:13:52;22.93;;;9.30;;
12088;SDS011;6107;49.078;8.578;2022-11-11T06:16:18;22.50;;;8.90;;
12088;SDS011;6107;49.078;8.578;2022-11-11T06:18:43;17.27;;;7.47;;
12088;SDS011;6107;49.078;8.578;2022-11-11T06:21:09;21.27;;;7.00;;
12088;SDS011;6107;49.078;8.578;2022-11-11T06:23:35;20.60;;;6.73;;
12088;SDS011;6107;49.078;8.578;2022-11-11T06:26:01;18.17;;;5.97;;
12088;SDS011;6107;49.078;8.578;2022-11-11T06:28:39;14.90;;;5.83;;
12088;SDS011;6107;49.078;8.578;2022-11-11T06:31:07;13.53;;;5.93;;
12088;SDS011;6107;49.078;8.578;2022-11-11T06:33:34;12.07;;;5.43;;
12088;SDS011;6107;49.078;8.578;2022-11-11T06:36:01;18.07;;;6.00;;
12088;SDS011;6107;49.078;8.578;2022-11-11T06:38:27;16.23;;;5.77;;
12088;SDS011;6107;49.078;8.578;2022-11-11T06:40:52;19.57;;;4.90;;
12088;SDS011;6107;49.078;8.578;2022-11-11T06:43:18;14.33;;;5.47;;
12088;SDS011;6107;49.078;8.578;2022-11-11T06:45:44;12.27;;;4.90;;
12088;SDS011;6107;49.078;8.578;2022-11-11T06:48:10;13.27;;;5.67;;
12088;SDS011;6107;49.078;8.578;2022-11-11T06:50:36;15.03;;;5.67;;
12088;SDS011;6107;49.078;8.578;2022-11-11T06:53:05;11.07;;;5.43;;
12088;SDS011;6107;49.078;8.578;2022-11-11T06:55:32;16.43;;;5.63;;
12088;SDS011;6107;49.078;8.578;2022-11-11T06:58:11;16.27;;;6.20;;
12088;SDS011;6107;49.078;8.578;2022-11-11T07:00:42;11.53;;;5.43;;
12088;SDS011;6107;49.078;8.578;2022-11-11T07:03:10;14.07;;;6.47;;
12088;SDS011;6107;49.078;8.578;2022-11-11T07:05:37;15.17;;;6.13;;
12088;SDS011;6107;49.078;8.578;2022-11-11T07:08:03;20.57;;;8.97;;
12088;SDS011;6107;49.078;8.578;2022-11-11T07:10:31;17.60;;;6.73;;
12088;SDS011;6107;49.078;8.578;2022-11-11T07:12:57;17.30;;;8.37;;
12088;SDS011;6107;49.078;8.578;2022-11-11T07:15:23;27.40;;;16.33;;
12088;SDS011;6107;49.078;8.578;2022-11-11T07:17:49;55.07;;;24.37;;
12088;SDS011;6107;49.078;8.578;2022-11-11T07:20:15;28.30;;;13.47;;
12088;SDS011;6107;49.078;8.578;2022-11-11T07:22:40;14.93;;;9.03;;
12088;SDS011;6107;49.078;8.578;2022-11-11T07:25:06;21.90;;;12.17;;
12088;SDS011;6107;49.078;8.578;2022-11-11T07:27:35;13.40;;;8.23;;
12088;SDS011;6107;49.078;8.578;2022-11-11T07:30:02;13.07;;;7.10;;
12088;SDS011;6107;49.078;8.578;2022-11-11T07:32:28;18.83;;;9.33;;
12088;SDS011;6107;49.078;8.578;2022-11-11T07:34:53;18.00;;;9.77;;
12088;SDS011;6107;49.078;8.578;2022-11-11T07:37:19;11.73;;;6.83;;
12088;SDS011;6107;49.078;8.578;2022-11-11T07:39:44;13.73;;;6.97;;
12088;SDS011;6107;49.078;8.578;2022-11-11T07:42:10;13.37;;;6.77;;
12088;SDS011;6107;49.078;8.578;2022-11-11T07:44:35;11.83;;;6.73;;
12088;SDS011;6107;49.078;8.578;2022-11-11T07:47:01;9.30;;;5.63;;
12088;SDS011;6107;49.078;8.578;2022-11-11T07:49:27;12.13;;;7.37;;
12088;SDS011;6107;49.078;8.578;2022-11-11T07:51:52;17.13;;;9.33;;
12088;SDS011;6107;49.078;8.578;2022-11-11T07:54:18;14.43;;;7.93;;
12088;SDS011;6107;49.078;8.578;2022-11-11T07:56:43;12.57;;;7.73;;
12088;SDS011;6107;49.078;8.578;2022-11-11T07:59:09;13.17;;;7.63;;
12088;SDS011;6107;49.078;8.578;2022-11-11T08:01:34;12.00;;;7.33;;
12088;SDS011;6107;49.078;8.578;2022-11-11T08:04:00;9.83;;;6.67;;
12088;SDS011;6107;49.078;8.578;2022-11-11T08:06:25;9.10;;;6.17;;
12088;SDS011;6107;49.078;8.578;2022-11-11T08:08:51;11.90;;;6.13;;
12088;SDS011;6107;49.078;8.578;2022-11-11T08:11:16;9.97;;;6.40;;
12088;SDS011;6107;49.078;8.578;2022-11-11T08:14:02;10.40;;;6.70;;
12088;SDS011;6107;49.078;8.578;2022-11-11T08:16:27;11.70;;;6.67;;
12088;SDS011;6107;49.078;8.578;2022-11-11T08:18:53;12.63;;;6.57;;
12088;SDS011;6107;49.078;8.578;2022-11-11T08:21:18;10.23;;;6.37;;
12088;SDS011;6107;49.078;8.578;2022-11-11T08:23:44;8.97;;;5.60;;
12088;SDS011;6107;49.078;8.578;2022-11-11T08:26:09;10.50;;;5.97;;
12088;SDS011;6107;49.078;8.578;2022-11-11T08:28:35;12.87;;;6.80;;
12088;SDS011;6107;49.078;8.578;2022-11-11T08:31:01;11.80;;;6.33;;
12088;SDS011;6107;49.078;8.578;2022-11-11T08:33:27;10.40;;;6.70;;
12088;SDS011;6107;49.078;8.578;2022-11-11T08:35:53;11.27;;;6.27;;
12088;SDS011;6107;49.078;8.578;2022-11-11T08:38:20;12.17;;;7.07;;
12088;SDS011;6107;49.078;8.578;2022-11-11T08:40:46;13.10;;;6.23;;
12088;SDS011;6107;49.078;8.578;2022-11-11T08:43:13;16.30;;;9.00;;
12088;SDS011;6107;49.078;8.578;2022-11-11T08:45:38;17.00;;;9.43;;
12088;SDS011;6107;49.078;8.578;2022-11-11T08:48:04;23.57;;;12.90;;
12088;SDS011;6107;49.078;8.578;2022-11-11T08:50:30;32.80;;;17.00;;
12088;SDS011;6107;49.078;8.578;2022-11-11T08:52:56;67.03;;;28.47;;
12088;SDS011;6107;49.078;8.578;2022-11-11T08:55:22;19.87;;;11.50;;
12088;SDS011;6107;49.078;8.578;2022-11-11T08:57:47;12.87;;;7.60;;
12088;SDS011;6107;49.078;8.578;2022-11-11T09:00:20;22.10;;;12.37;;
12088;SDS011;6107;49.078;8.578;2022-11-11T09:02:47;13.00;;;8.50;;
12088;SDS011;6107;49.078;8.578;2022-11-11T09:05:13;10.87;;;7.33;;
12088;SDS011;6107;49.078;8.578;2022-11-11T09:07:39;10.63;;;7.77;;
12088;SDS011;6107;49.078;8.578;2022-11-11T09:10:04;9.47;;;6.90;;
12088;SDS011;6107;49.078;8.578;2022-11-11T09:12:30;9.30;;;6.47;;
12088;SDS011;6107;49.078;8.578;2022-11-11T09:14:56;11.17;;;6.23;;
12088;SDS011;6107;49.078;8.578;2022-11-11T09:17:21;9.60;;;6.57;;
12088;SDS011;6107;49.078;8.578;2022-11-11T09:19:47;9.63;;;5.70;;
12088;SDS011;6107;49.078;8.578;2022-11-11T09:22:12;11.77;;;6.60;;
12088;SDS011;6107;49.078;8.578;2022-11-11T09:24:37;8.17;;;5.60;;
12088;SDS011;6107;49.078;8.578;2022-11-11T09:27:03;9.33;;;5.73;;
12088;SDS011;6107;49.078;8.578;2022-11-11T09:29:29;10.87;;;6.30;;
12088;SDS011;6107;49.078;8.578;2022-11-11T09:31:54;10.33;;;6.90;;
12088;SDS011;6107;49.078;8.578;2022-11-11T09:34:19;16.00;;;9.67;;
12088;SDS011;6107;49.078;8.578;2022-11-11T09:36:45;12.77;;;8.53;;
12088;SDS011;6107;49.078;8.578;2022-11-11T09:39:10;12.57;;;8.07;;
12088;SDS011;6107;49.078;8.578;2022-11-11T09:44:38;14.80;;;8.40;;
12088;SDS011;6107;49.078;8.578;2022-11-11T09:50:32;11.60;;;6.47;;
12088;SDS011;6107;49.078;8.578;2022-11-11T09:53:02;11.70;;;6.57;;
12088;SDS011;6107;49.078;8.578;2022-11-11T09:58:11;9.43;;;5.47;;
12088;SDS011;6107;49.078;8.578;2022-11-11T10:00:43;10.73;;;6.10;;
12088;SDS011;6107;49.078;8.578;2022-11-11T10:03:14;7.93;;;5.87;;
12088;SDS011;6107;49.078;8.578;2022-11-11T10:05:48;6.57;;;5.10;;
12088;SDS011;6107;49.078;8.578;2022-11-11T10:08:22;7.77;;;4.73;;
12088;SDS011;6107;49.078;8.578;2022-11-11T10:10:51;7.47;;;5.37;;
12088;SDS011;6107;49.078;8.578;2022-11-11T10:13:28;10.03;;;5.37;;
12088;SDS011;6107;49.078;8.578;2022-11-11T10:16:13;7.87;;;5.53;;
12088;SDS011;6107;49.078;8.578;2022-11-11T10:24:15;7.83;;;5.43;;
12088;SDS011;6107;49.078;8.578;2022-11-11T10:26:46;6.77;;;5.23;;
12088;SDS011;6107;49.078;8.578;2022-11-11T10:29:19;9.93;;;6.50;;
12088;SDS011;6107;49.078;8.578;2022-11-11T10:32:02;8.60;;;6.03;;
12088;SDS011;6107;49.078;8.578;2022-11-11T10:34:34;9.27;;;6.40;;
12088;SDS011;6107;49.078;8.578;2022-11-11T10:37:01;7.33;;;5.90;;
12088;SDS011;6107;49.078;8.578;2022-11-11T10:39:49;8.07;;;5.70;;
12088;SDS011;6107;49.078;8.578;2022-11-11T10:42:29;8.17;;;6.10;;
12088;SDS011;6107;49.078;8.578;2022-11-11T10:44:58;8.80;;;5.67;;
12088;SDS011;6107;49.078;8.578;2022-11-11T10:50:17;7.87;;;5.60;;
12088;SDS011;6107;49.078;8.578;2022-11-11T10:52:55;8.37;;;5.90;;
12088;SDS011;6107;49.078;8.578;2022-11-11T10:55:28;7.80;;;6.20;;
12088;SDS011;6107;49.078;8.578;2022-11-11T11:00:54;8.47;;;6.33;;
12088;SDS011;6107;49.078;8.578;2022-11-11T11:03:29;8.33;;;6.33;;
12088;SDS011;6107;49.078;8.578;2022-11-11T11:06:21;8.67;;;6.70;;
12088;SDS011;6107;49.078;8.578;2022-11-11T11:08:52;10.40;;;7.07;;
12088;SDS011;6107;49.078;8.578;2022-11-11T11:11:32;9.90;;;7.33;;
12088;SDS011;6107;49.078;8.578;2022-11-11T11:14:04;10.00;;;6.73;;
12088;SDS011;6107;49.078;8.578;2022-11-11T11:16:36;7.47;;;5.90;;
12088;SDS011;6107;49.078;8.578;2022-11-11T11:19:15;10.50;;;7.43;;
12088;SDS011;6107;49.078;8.578;2022-11-11T11:22:14;9.70;;;7.43;;
12088;SDS011;6107;49.078;8.578;2022-11-11T11:24:33;10.00;;;8.70;;
12088;SDS011;6107;49.078;8.578;2022-11-11T11:27:05;11.23;;;8.53;;
12088;SDS011;6107;49.078;8.578;2022-11-11T11:29:33;11.50;;;8.40;;
12088;SDS011;6107;49.078;8.578;2022-11-11T11:34:51;11.03;;;7.80;;
12088;SDS011;6107;49.078;8.578;2022-11-11T11:37:22;10.43;;;7.50;;
12088;SDS011;6107;49.078;8.578;2022-11-11T11:39:58;10.63;;;7.33;;
12088;SDS011;6107;49.078;8.578;2022-11-11T11:42:35;12.03;;;7.53;;
12088;SDS011;6107;49.078;8.578;2022-11-11T11:45:14;16.17;;;9.40;;
12088;SDS011;6107;49.078;8.578;2022-11-11T11:47:49;13.40;;;9.00;;
12088;SDS011;6107;49.078;8.578;2022-11-11T11:50:23;14.57;;;8.50;;
12088;SDS011;6107;49.078;8.578;2022-11-11T11:55:51;14.53;;;9.50;;
12088;SDS011;6107;49.078;8.578;2022-11-11T12:06:04;13.43;;;9.77;;
12088;SDS011;6107;49.078;8.578;2022-11-11T12:11:25;13.47;;;8.97;;
12088;SDS011;6107;49.078;8.578;2022-11-11T12:16:57;9.88;;;7.47;;
12088;SDS011;6107;49.078;8.578;2022-11-11T12:19:44;12.70;;;7.43;;
12088;SDS011;6107;49.078;8.578;2022-11-11T12:22:35;9.20;;;7.03;;
12088;SDS011;6107;49.078;8.578;2022-11-11T12:31:22;10.55;;;7.25;;
12088;SDS011;6107;49.078;8.578;2022-11-11T12:34:14;10.60;;;8.32;;
12088;SDS011;6107;49.078;8.578;2022-11-11T12:36:46;9.95;;;7.63;;
12088;SDS011;6107;49.078;8.578;2022-11-11T12:42:07;9.40;;;7.25;;
12088;SDS011;6107;49.078;8.578;2022-11-11T12:47:25;11.88;;;7.50;;
12088;SDS011;6107;49.078;8.578;2022-11-11T12:55:42;11.20;;;8.20;;
12088;SDS011;6107;49.078;8.578;2022-11-11T13:12:28;10.97;;;7.80;;
12088;SDS011;6107;49.078;8.578;2022-11-11T13:15:23;8.93;;;6.70;;
12088;SDS011;6107;49.078;8.578;2022-11-11T13:17:48;11.93;;;8.90;;
12088;SDS011;6107;49.078;8.578;2022-11-11T13:20:17;13.20;;;8.90;;
12088;SDS011;6107;49.078;8.578;2022-11-11T13:23:06;11.87;;;9.07;;
12088;SDS011;6107;49.078;8.578;2022-11-11T13:25:36;14.30;;;9.63;;
12088;SDS011;6107;49.078;8.578;2022-11-11T13:28:12;13.80;;;9.50;;
12088;SDS011;6107;49.078;8.578;2022-11-11T13:36:23;15.40;;;10.53;;
12088;SDS011;6107;49.078;8.578;2022-11-11T13:38:52;15.57;;;10.70;;
12088;SDS011;6107;49.078;8.578;2022-11-11T13:41:33;14.57;;;10.80;;
12088;SDS011;6107;49.078;8.578;2022-11-11T13:44:05;15.40;;;10.93;;
12088;SDS011;6107;49.078;8.578;2022-11-11T13:46:39;18.73;;;11.80;;
12088;SDS011;6107;49.078;8.578;2022-11-11T13:49:26;16.43;;;12.30;;
12088;SDS011;6107;49.078;8.578;2022-11-11T13:51:59;18.53;;;13.20;;
12088;SDS011;6107;49.078;8.578;2022-11-11T13:54:33;22.20;;;13.27;;
12088;SDS011;6107;49.078;8.578;2022-11-11T13:57:05;20.70;;;13.13;;
12088;SDS011;6107;49.078;8.578;2022-11-11T13:59:39;22.30;;;13.53;;
12088;SDS011;6107;49.078;8.578;2022-11-11T14:02:11;19.80;;;14.03;;
12088;SDS011;6107;49.078;8.578;2022-11-11T14:20:46;30.00;;;17.03;;
12088;SDS011;6107;49.078;8.578;2022-11-11T14:26:14;28.90;;;16.20;;
12088;SDS011;6107;49.078;8.578;2022-11-11T14:36:30;30.57;;;17.67;;
12088;SDS011;6107;49.078;8.578;2022-11-11T14:41:57;31.00;;;17.30;;
12088;SDS011;6107;49.078;8.578;2022-11-11T14:52:23;41.53;;;18.10;;
12088;SDS011;6107;49.078;8.578;2022-11-11T14:57:48;31.47;;;18.47;;
12088;SDS011;6107;49.078;8.578;2022-11-11T15:02:53;41.83;;;18.63;;
12088;SDS011;6107;49.078;8.578;2022-11-11T15:08:25;34.90;;;17.97;;
12088;SDS011;6107;49.078;8.578;2022-11-11T15:13:44;33.20;;;17.17;;
12088;SDS011;6107;49.078;8.578;2022-11-11T15:25:00;36.90;;;17.20;;
12088;SDS011;6107;49.078;8.578;2022-11-11T15:30:51;32.57;;;16.40;;
12088;SDS011;6107;49.078;8.578;2022-11-11T15:33:33;54.47;;;17.03;;
12088;SDS011;6107;49.078;8.578;2022-11-11T15:38:41;31.97;;;17.00;;
12088;SDS011;6107;49.078;8.578;2022-11-11T15:41:18;42.07;;;17.67;;
12088;SDS011;6107;49.078;8.578;2022-11-11T15:43:59;34.87;;;17.63;;
12088;SDS011;6107;49.078;8.578;2022-11-11T15:46:25;38.90;;;21.03;;
12088;SDS011;6107;49.078;8.578;2022-11-11T15:48:52;17.97;;;12.10;;
12088;SDS011;6107;49.078;8.578;2022-11-11T15:51:28;36.30;;;17.50;;
12088;SDS011;6107;49.078;8.578;2022-11-11T15:56:56;32.70;;;16.00;;
12088;SDS011;6107;49.078;8.578;2022-11-11T15:59:23;41.37;;;15.60;;
12088;SDS011;6107;49.078;8.578;2022-11-11T16:01:54;27.77;;;15.00;;
12088;SDS011;6107;49.078;8.578;2022-11-11T16:04:22;62.23;;;17.47;;
12088;SDS011;6107;49.078;8.578;2022-11-11T16:06:48;44.10;;;16.33;;
12088;SDS011;6107;49.078;8.578;2022-11-11T16:09:15;41.97;;;15.40;;
12088;SDS011;6107;49.078;8.578;2022-11-11T16:11:47;34.83;;;14.97;;
12088;SDS011;6107;49.078;8.578;2022-11-11T16:14:18;43.20;;;16.50;;
12088;SDS011;6107;49.078;8.578;2022-11-11T16:16:51;61.70;;;14.80;;
12088;SDS011;6107;49.078;8.578;2022-11-11T16:24:44;49.50;;;15.03;;
12088;SDS011;6107;49.078;8.578;2022-11-11T16:27:14;52.40;;;15.43;;
12088;SDS011;6107;49.078;8.578;2022-11-11T16:29:46;44.73;;;17.07;;
12088;SDS011;6107;49.078;8.578;2022-11-11T16:34:49;52.73;;;17.47;;
12088;SDS011;6107;49.078;8.578;2022-11-11T16:37:17;60.13;;;15.43;;
12088;SDS011;6107;49.078;8.578;2022-11-11T16:39:43;75.53;;;15.77;;
12088;SDS011;6107;49.078;8.578;2022-11-11T16:42:22;54.23;;;17.23;;
12088;SDS011;6107;49.078;8.578;2022-11-11T16:44:52;63.53;;;15.43;;
12088;SDS011;6107;49.078;8.578;2022-11-11T16:50:00;33.20;;;13.70;;
12088;SDS011;6107;49.078;8.578;2022-11-11T16:52:50;54.40;;;13.60;;
12088;SDS011;6107;49.078;8.578;2022-11-11T16:55:25;53.47;;;12.67;;
12088;SDS011;6107;49.078;8.578;2022-11-11T16:58:00;52.20;;;13.27;;
12088;SDS011;6107;49.078;8.578;2022-11-11T17:00:33;36.43;;;14.87;;
12088;SDS011;6107;49.078;8.578;2022-11-11T17:03:07;38.93;;;15.50;;
12088;SDS011;6107;49.078;8.578;2022-11-11T17:11:00;75.60;;;18.70;;
12088;SDS011;6107;49.078;8.578;2022-11-11T17:13:27;72.57;;;19.77;;
12088;SDS011;6107;49.078;8.578;2022-11-11T17:15:53;68.67;;;23.73;;
12088;SDS011;6107;49.078;8.578;2022-11-11T17:18:20;104.80;;;20.57;;
12088;SDS011;6107;49.078;8.578;2022-11-11T17:20:46;78.70;;;20.57;;
12088;SDS011;6107;49.078;8.578;2022-11-11T17:23:12;57.90;;;20.53;;
12088;SDS011;6107;49.078;8.578;2022-11-11T17:25:38;57.97;;;20.50;;
12088;SDS011;6107;49.078;8.578;2022-11-11T17:28:03;49.20;;;16.07;;
12088;SDS011;6107;49.078;8.578;2022-11-11T17:30:29;53.27;;;15.50;;
12088;SDS011;6107;49.078;8.578;2022-11-11T17:32:54;54.67;;;15.73;;
12088;SDS011;6107;49.078;8.578;2022-11-11T17:35:20;44.17;;;15.00;;
12088;SDS011;6107;49.078;8.578;2022-11-11T17:37:45;46.57;;;13.97;;
12088;SDS011;6107;49.078;8.578;2022-11-11T17:40:11;43.77;;;14.93;;
12088;SDS011;6107;49.078;8.578;2022-11-11T17:42:37;34.30;;;14.90;;
12088;SDS011;6107;49.078;8.578;2022-11-11T17:45:03;46.87;;;13.87;;
12088;SDS011;6107;49.078;8.578;2022-11-11T17:47:29;36.47;;;16.60;;
12088;SDS011;6107;49.078;8.578;2022-11-11T17:49:56;29.43;;;15.83;;
12088;SDS011;6107;49.078;8.578;2022-11-11T17:52:22;37.73;;;15.10;;
12088;SDS011;6107;49.078;8.578;2022-11-11T17:54:47;64.23;;;16.00;;
12088;SDS011;6107;49.078;8.578;2022-11-11T17:57:13;67.53;;;15.90;;
12088;SDS011;6107;49.078;8.578;2022-11-11T17:59:38;32.43;;;16.13;;